Airfield :







YOU CAN JOIN US ON...

 
LOGIN :

Register | Disclaimer

   EN    FR    IT 

 









Legend :    VFR   Marginal VFR   IFR   Intensive IFR   Very Intensive IFR
Visi :
Ceiling :
>= 8 km
>= 3000ft
5 to 8 km
1000 to 3000 ft
1500m to 5 km
500 to 1000 ft
800 to 1500m
200 to 500 ft
< 800m
< 200 ft
Symbols :   Thunderstorms  Fog  Heavy snow  Heavy precipitations  Wind > 20 kt






- Airport Elevation : 108 ft
- IATA code : YGP


CYGP - Gaspé

CURRENT METAR :
  • 222000Z 12010G24KT 100V190 8SM -SHRA BKN015 OVC085 02/M00 A2944 RMK CU7AS1 SLP974

EXPIRED METARs :
  • 221937Z 14009G15KT 100V200 8SM -SHRA BKN014 OVC085 02/M01 A2945 RMK CU6AS2 SLP976
  • 221900Z 14006G17KT 090V190 10SM VCSH SCT018 BKN050 OVC100 02/M01 A2948 RMK CU4SC1AS3 OCNL -SHSN SLP985
  • 221800Z 13005KT 110V190 15SM VCSH BKN020 BKN030 BKN070 02/M02 A2952 RMK CU5SC2AC1 AC TR OCNL -SHSN SLP000
  • 221743Z 12007KT 10SM VCSH BKN018 BKN030 BKN070 01/M02 A2953 RMK CU5SC2AC1 AC TR OCNL -SHSN SLP003
  • 221717Z 12006KT 100V220 5SM -SN BKN018 BKN070 01/M02 A2954 RMK SC6AC1 PRESFR SLP008

TAF TAF CYGP
Valid from the 22 at 20:00 until the 23 at 08:00 UTC


221943Z 2220/2308 14010G20KT P6SM -RA BKN025 OVC050
TEMPO 2220/2223 3SM -SNRA BR OVC015
FM222300 VRB03KT 6SM -RA BR OVC012
TEMPO 2223/2306 2SM -RA BR OVC005
FM230700 28010G20KT P6SM BKN020 RMK NXT FCST BY 230200Z



MET'MAP, your aeronautical weather chart ! - Copyright ORBIFLY December 2007 - Disclaimer

ORBIFLY MET'MAP TEAM :

Programming & Development : Alexandra Zaïnal
Concept & Development : Baudouin d'Aumeries
Co-Development & Prog : Marc-Olivier Méhu
Technical & hardware support : Manuel Goepfert

Contact : metmap@orbifly.com




SOURCES & CREDITS :

   NOAA